createdAt,value
2023-03-21T00:01:20.001Z,27
2023-03-21T00:07:32.380Z,27
2023-03-21T00:13:51.136Z,27
2023-03-21T00:20:00.609Z,26.9
2023-03-21T00:26:37.043Z,26.9
2023-03-21T00:33:21.674Z,26.9
2023-03-21T00:40:29.266Z,26.9
2023-03-21T00:47:06.870Z,26.9
2023-03-21T00:53:19.763Z,26.8
2023-03-21T00:59:08.976Z,26.8
2023-03-21T01:05:14.901Z,26.8
2023-03-21T01:11:10.528Z,26.8
2023-03-21T01:17:13.379Z,26.8
2023-03-21T01:23:30.546Z,26.8
2023-03-21T01:29:03.725Z,26.7
2023-03-21T01:34:57.922Z,26.7
2023-03-21T01:40:58.552Z,26.6
2023-03-21T01:47:09.552Z,26.6
2023-03-21T01:53:08.317Z,26.5
2023-03-21T01:58:41.414Z,26.5
2023-03-21T02:04:36.616Z,26.4
2023-03-21T02:10:24.101Z,26.4
2023-03-21T02:16:14.471Z,26.4
2023-03-21T02:21:55.618Z,26.4
2023-03-21T02:27:39.694Z,26.4
2023-03-21T02:34:01.247Z,26.3
2023-03-21T02:40:18.788Z,26.3
2023-03-21T02:47:05.199Z,26.3
2023-03-21T02:53:43.806Z,26.3
2023-03-21T03:00:16.446Z,26.3
2023-03-21T03:06:01.273Z,26.2
2023-03-21T03:11:37.105Z,26.2
2023-03-21T03:18:09.242Z,26.2
2023-03-21T03:23:57.704Z,26.2
2023-03-21T03:29:41.122Z,26.1
2023-03-21T03:36:04.802Z,26.1
2023-03-21T03:42:01.571Z,26.1
2023-03-21T03:48:30.151Z,26.1
2023-03-21T03:54:24.970Z,26.1
2023-03-21T04:00:31.263Z,26.1
2023-03-21T04:06:47.117Z,26.1
2023-03-21T04:12:37.398Z,26.1
2023-03-21T04:18:53.910Z,26.1
2023-03-21T04:24:35.443Z,26
2023-03-21T04:30:55.107Z,26
2023-03-21T04:37:02.847Z,26
2023-03-21T04:42:54.694Z,26
2023-03-21T04:48:47.779Z,25.9
2023-03-21T04:54:39.247Z,25.9
2023-03-21T05:00:31.367Z,25.9
2023-03-21T05:06:25.596Z,25.5
2023-03-21T05:12:20.811Z,24.7
2023-03-21T05:18:13.145Z,24.1
2023-03-21T05:24:04.734Z,23.8
2023-03-21T05:29:57.350Z,23.4
2023-03-21T05:35:50.740Z,23.3
2023-03-21T05:41:28.608Z,23.1
2023-03-21T05:47:22.760Z,23
2023-03-21T05:52:59.501Z,22.9
2023-03-21T05:58:51.551Z,22.8
2023-03-21T06:04:44.780Z,22.7
2023-03-21T06:10:37.076Z,22.6
2023-03-21T06:16:29.965Z,22.6
2023-03-21T06:22:22.676Z,22.5
2023-03-21T06:27:28.733Z,22.8
2023-03-21T06:33:21.111Z,22.8
2023-03-21T06:39:14.126Z,22.7
2023-03-21T06:45:06.737Z,22.6
2023-03-21T06:51:00.664Z,22.5
2023-03-21T06:56:22.854Z,22.4
2023-03-21T07:01:58.933Z,22.3
2023-03-21T07:07:55.026Z,22.3
2023-03-21T07:13:32.589Z,22.2
2023-03-21T07:19:24.480Z,22.2
2023-03-21T07:25:24.010Z,22.1
2023-03-21T07:31:01.614Z,22.1
2023-03-21T07:36:38.739Z,22
2023-03-21T07:42:15.414Z,22
2023-03-21T07:48:13.117Z,21.9
2023-03-21T07:54:05.963Z,21.9
2023-03-21T07:59:59.023Z,21.9
2023-03-21T08:05:53.595Z,21.8
2023-03-21T08:11:49.037Z,21.8
2023-03-21T08:17:42.172Z,21.8
2023-03-21T08:23:34.436Z,21.8
2023-03-21T08:29:27.593Z,21.7
2023-03-21T08:35:05.603Z,21.7
2023-03-21T08:41:02.361Z,21.6
2023-03-21T08:46:40.918Z,21.6
2023-03-21T08:52:34.079Z,21.6
2023-03-21T08:58:27.941Z,21.6
2023-03-21T09:04:21.657Z,21.6
2023-03-21T09:10:36.073Z,21.5
2023-03-21T09:16:15.786Z,21.4
2023-03-21T09:22:08.365Z,21.4
2023-03-21T09:28:03.148Z,21.4
2023-03-21T09:33:40.450Z,21.4
2023-03-21T09:39:33.074Z,21.4
2023-03-21T09:45:26.524Z,21.3
2023-03-21T09:51:38.367Z,21.3
2023-03-21T09:57:31.220Z,21.3
2023-03-21T10:03:24.734Z,21.3
2023-03-21T10:09:19.072Z,21.3
2023-03-21T10:15:14.431Z,21.3
2023-03-21T10:21:07.822Z,21.3
2023-03-21T10:27:28.400Z,23.9
2023-03-21T10:33:38.197Z,50.3
2023-03-21T10:39:32.480Z,43.1
2023-03-21T10:45:10.811Z,44
2023-03-21T10:51:30.009Z,42.3
2023-03-21T10:57:24.489Z,39.4
2023-03-21T11:03:02.745Z,36.4
2023-03-21T11:08:40.398Z,48
2023-03-21T11:14:44.136Z,45.1
2023-03-21T11:20:23.591Z,42.3
2023-03-21T11:26:16.773Z,42.6
2023-03-21T11:32:10.530Z,42.3
2023-03-21T11:38:03.378Z,43.4
2023-03-21T11:43:56.751Z,45.9
2023-03-21T11:49:55.636Z,43.6
2023-03-21T11:55:33.321Z,42.1
2023-03-21T12:01:38.681Z,39.3
2023-03-21T12:07:45.333Z,36.4
2023-03-21T12:13:46.257Z,34.3
2023-03-21T12:19:39.758Z,32.8
2023-03-21T12:25:33.517Z,31.6
2023-03-21T12:31:40.839Z,30.6
2023-03-21T12:37:35.311Z,29.8
2023-03-21T12:43:30.036Z,29
2023-03-21T12:49:44.882Z,28.4
2023-03-21T13:00:57.791Z,27.4
2023-03-21T13:06:48.285Z,27
2023-03-21T13:12:31.622Z,26.6
2023-03-21T13:18:32.715Z,26.3
2023-03-21T13:24:25.784Z,26
2023-03-21T13:30:19.037Z,25.8
2023-03-21T13:36:07.156Z,25.5
2023-03-21T13:42:00.150Z,25.3
2023-03-21T13:48:10.624Z,25.1
2023-03-21T13:54:12.854Z,24.9
2023-03-21T14:00:06.782Z,24.8
2023-03-21T14:06:11.527Z,24.7
2023-03-21T14:12:24.156Z,24.5
2023-03-21T14:18:53.210Z,24.4
2023-03-21T14:24:50.624Z,24.4
2023-03-21T14:31:09.801Z,24.3
2023-03-21T14:36:32.694Z,24.2
2023-03-21T14:42:35.856Z,24.1
2023-03-21T14:48:37.110Z,24.1
2023-03-21T14:54:14.140Z,23.9
2023-03-21T14:59:52.790Z,23.9
2023-03-21T15:05:46.722Z,23.9
2023-03-21T15:11:37.274Z,23.8
2023-03-21T15:17:31.990Z,23.8
2023-03-21T15:23:24.794Z,23.6
2023-03-21T15:29:18.923Z,23.4
2023-03-21T15:34:57.910Z,23.2
2023-03-21T15:40:35.196Z,23.1
2023-03-21T15:46:15.186Z,22.9
2023-03-21T15:51:54.779Z,22.9
2023-03-21T15:57:18.810Z,22.8
2023-03-21T16:02:41.432Z,22.7
2023-03-21T16:08:35.199Z,22.6
2023-03-21T16:14:27.416Z,22.5
2023-03-21T16:20:19.752Z,22.4
2023-03-21T16:26:13.367Z,22.4
2023-03-21T16:32:06.133Z,22.3
2023-03-21T16:37:58.708Z,22.3
2023-03-21T16:43:36.930Z,22.2
2023-03-21T16:49:14.920Z,22.1
2023-03-21T17:00:31.753Z,22.1
2023-03-21T17:06:26.731Z,22
2023-03-21T17:12:03.229Z,22
2023-03-21T17:17:56.810Z,21.9
2023-03-21T17:23:36.997Z,21.9
2023-03-21T17:29:28.986Z,21.9
2023-03-21T17:35:22.789Z,21.9
2023-03-21T17:41:15.824Z,21.9
2023-03-21T17:47:08.834Z,21.8
2023-03-21T17:52:31.295Z,21.8
2023-03-21T17:57:55.615Z,21.8
2023-03-21T18:03:51.402Z,21.8
2023-03-21T18:10:28.771Z,21.8
2023-03-21T18:16:45.893Z,21.8
2023-03-21T18:22:34.989Z,22.1
2023-03-21T18:29:44.761Z,22.4
2023-03-21T18:36:59.374Z,22.9
2023-03-21T18:43:47.251Z,23.1
2023-03-21T18:50:48.802Z,23.3
2023-03-21T18:57:58.547Z,23.5
2023-03-21T19:04:37.457Z,23.8
2023-03-21T19:10:49.579Z,23.9
2023-03-21T19:17:26.845Z,24
2023-03-21T19:24:50.243Z,24.1
2023-03-21T19:31:06.984Z,24.3
2023-03-21T19:37:25.209Z,24.3
2023-03-21T19:43:54.459Z,24.3
2023-03-21T19:50:06.621Z,24.2
2023-03-21T19:57:04.492Z,24.1
2023-03-21T20:03:24.586Z,24
2023-03-21T20:10:07.356Z,23.9
2023-03-21T20:16:11.229Z,23.8
2023-03-21T20:23:05.028Z,23.7
2023-03-21T20:30:05.645Z,23.6
2023-03-21T20:37:14.514Z,23.5
2023-03-21T20:43:47.595Z,23.4
2023-03-21T20:50:25.990Z,23.3
2023-03-21T20:57:39.097Z,23.3
2023-03-21T21:04:20.127Z,23.1
2023-03-21T21:10:37.872Z,23.1
2023-03-21T21:17:17.526Z,23
2023-03-21T21:23:49.815Z,22.9
2023-03-21T21:29:44.420Z,22.9
2023-03-21T21:35:37.971Z,22.9
2023-03-21T21:41:30.077Z,22.8
2023-03-21T21:47:07.661Z,22.8
2023-03-21T21:53:00.706Z,22.7
2023-03-21T21:58:39.130Z,22.7
2023-03-21T22:04:31.202Z,22.6
2023-03-21T22:10:11.662Z,22.6
2023-03-21T22:15:49.733Z,22.6
2023-03-21T22:21:30.822Z,22.5
2023-03-21T22:27:08.932Z,22.5
2023-03-21T22:33:09.850Z,22.4
2023-03-21T22:38:46.952Z,22.4
2023-03-21T22:44:40.136Z,22.3
2023-03-21T22:50:16.441Z,22.3
2023-03-21T22:56:09.390Z,22.3
2023-03-21T23:02:02.412Z,22.2
2023-03-21T23:07:40.986Z,22.1
2023-03-21T23:13:18.607Z,22.1
2023-03-21T23:18:55.956Z,22.1
2023-03-21T23:24:48.804Z,22.1
2023-03-21T23:30:28.269Z,22
2023-03-21T23:36:22.367Z,21.9
2023-03-21T23:42:14.390Z,21.9
2023-03-21T23:48:06.642Z,21.9
2023-03-21T23:54:00.890Z,21.9
2023-03-21T23:59:54.273Z,21.8
